Time;durP1;ratioP1;P1;durP2;ratioP2;P2;SDS_P1;SDS_P2;PMS_P1;PMS_P2;Temp;Humidity;BMP_temperature;BMP_pressure;BME280_temperature;BME280_humidity;BME280_pressure;Samples;Min_cycle;Max_cycle;Signal;HPM_P1;HPM_P2
2022/04/27 00:00:36;;;;;;;12.10;11.70;;;8.90;99.90;;;;;;5122838;28;20235;-82
2022/04/27 00:03:06;;;;;;;11.87;11.47;;;8.90;99.90;;;;;;5122998;28;20243;-82
2022/04/27 00:05:35;;;;;;;12.20;11.80;;;8.90;99.90;;;;;;5121701;28;20232;-82
2022/04/27 00:08:02;;;;;;;12.07;11.67;;;8.90;99.90;;;;;;5121491;28;20237;-81
2022/04/27 00:10:30;;;;;;;12.17;11.77;;;8.90;99.90;;;;;;5122232;28;20213;-81
2022/04/27 00:12:58;;;;;;;12.00;11.60;;;8.90;99.90;;;;;;5122109;28;20244;-81
2022/04/27 00:15:28;;;;;;;12.03;11.63;;;8.90;99.90;;;;;;5121883;28;20225;-81
2022/04/27 00:17:56;;;;;;;11.93;11.53;;;8.90;99.90;;;;;;5128006;28;20235;-81
2022/04/27 00:20:26;;;;;;;12.10;11.70;;;8.80;99.90;;;;;;5121922;28;20235;-81
2022/04/27 00:22:53;;;;;;;11.80;11.40;;;8.80;99.90;;;;;;5121843;28;20308;-81
2022/04/27 00:25:23;;;;;;;11.90;11.50;;;8.80;99.90;;;;;;5121960;28;20228;-81
2022/04/27 00:27:51;;;;;;;11.97;11.57;;;8.80;99.90;;;;;;5122573;28;20654;-81
2022/04/27 00:30:19;;;;;;;12.13;11.73;;;8.70;99.90;;;;;;5123266;28;20208;-81
2022/04/27 00:32:46;;;;;;;12.10;11.70;;;8.70;99.90;;;;;;5137624;27;20225;-80
2022/04/27 00:35:14;;;;;;;11.90;11.50;;;8.70;99.90;;;;;;5138898;28;20264;-80
2022/04/27 00:37:43;;;;;;;11.87;11.47;;;8.60;99.90;;;;;;5140065;27;20223;-80
2022/04/27 00:40:13;;;;;;;11.80;11.40;;;8.60;99.90;;;;;;5140684;27;20197;-80
2022/04/27 00:42:41;;;;;;;11.80;11.40;;;8.60;99.90;;;;;;5139466;28;20258;-81
2022/04/27 00:45:10;;;;;;;11.87;11.47;;;8.60;99.90;;;;;;5140280;27;20216;-81
2022/04/27 00:47:38;;;;;;;11.90;11.50;;;8.60;99.90;;;;;;5141341;27;20235;-79
2022/04/27 00:50:06;;;;;;;12.10;11.70;;;8.70;99.90;;;;;;5140988;27;20193;-80
2022/04/27 00:52:35;;;;;;;11.90;11.50;;;8.70;99.90;;;;;;5140581;27;20220;-79
2022/04/27 00:55:06;;;;;;;12.00;11.60;;;8.60;99.90;;;;;;5140409;27;20222;-80
2022/04/27 00:57:36;;;;;;;11.90;11.50;;;8.60;99.90;;;;;;5143802;27;20229;-80
2022/04/27 01:00:05;;;;;;;11.67;11.27;;;8.60;99.90;;;;;;5143913;27;20223;-80
2022/04/27 01:02:33;;;;;;;11.70;11.30;;;8.60;99.90;;;;;;5144764;27;20242;-79
2022/04/27 01:05:01;;;;;;;11.97;11.57;;;8.70;99.90;;;;;;5144165;27;20273;-80
2022/04/27 01:07:29;;;;;;;12.00;11.60;;;8.70;99.90;;;;;;5143799;27;20207;-79
2022/04/27 01:09:57;;;;;;;11.90;11.50;;;8.80;99.90;;;;;;5136522;27;20236;-81
2022/04/27 01:12:28;;;;;;;11.83;11.43;;;8.80;99.90;;;;;;5135572;28;20255;-80
2022/04/27 01:14:56;;;;;;;11.83;11.43;;;8.70;99.90;;;;;;5142520;28;20228;-80
2022/04/27 01:17:24;;;;;;;11.73;11.33;;;8.70;99.90;;;;;;5126908;28;20228;-80
2022/04/27 01:19:51;;;;;;;11.77;11.37;;;8.70;99.90;;;;;;5125284;28;20255;-80
2022/04/27 01:22:22;;;;;;;11.87;11.47;;;8.70;99.90;;;;;;5124873;27;20236;-80
2022/04/27 01:24:50;;;;;;;11.87;11.47;;;8.70;99.90;;;;;;5124808;28;20236;-81
2022/04/27 01:27:18;;;;;;;11.87;11.47;;;8.70;99.90;;;;;;5124678;28;20671;-80
2022/04/27 01:29:46;;;;;;;11.97;11.57;;;8.70;99.90;;;;;;5123566;28;20225;-80
2022/04/27 01:32:15;;;;;;;11.60;11.20;;;8.70;99.90;;;;;;5124009;28;20242;-80
2022/04/27 01:34:42;;;;;;;11.17;10.77;;;8.80;99.90;;;;;;5124063;28;20320;-80
2022/04/27 01:39:57;;;;;;;11.70;11.30;;;8.80;99.90;;;;;;5123847;28;20221;-80
2022/04/27 01:42:24;;;;;;;11.50;11.10;;;8.70;99.90;;;;;;5123922;28;20282;-80
2022/04/27 01:44:52;;;;;;;11.70;11.30;;;8.80;99.90;;;;;;5120648;28;20263;-79
2022/04/27 01:47:20;;;;;;;11.60;11.20;;;8.80;99.90;;;;;;5123945;28;20291;-80
2022/04/27 01:49:47;;;;;;;11.53;11.13;;;8.70;99.90;;;;;;5125334;28;20224;-80
2022/04/27 01:55:02;;;;;;;11.47;11.07;;;8.80;99.90;;;;;;5128026;28;20217;-80
2022/04/27 01:57:30;;;;;;;11.53;11.13;;;8.70;99.90;;;;;;5125840;28;20233;-80
2022/04/27 01:59:58;;;;;;;11.90;11.50;;;8.70;99.90;;;;;;5125318;28;20245;-80
2022/04/27 02:02:26;;;;;;;11.53;11.13;;;8.70;99.90;;;;;;5125105;28;20228;-80
2022/04/27 02:04:53;;;;;;;11.80;11.40;;;8.80;99.90;;;;;;5124534;28;20221;-81
2022/04/27 02:07:21;;;;;;;11.60;11.20;;;8.80;99.90;;;;;;5122819;27;20229;-80
2022/04/27 02:09:49;;;;;;;11.70;11.30;;;8.80;99.90;;;;;;5124794;28;20229;-80
2022/04/27 02:12:18;;;;;;;11.40;11.00;;;8.80;99.90;;;;;;5123384;28;21019;-80
2022/04/27 02:14:46;;;;;;;11.50;11.10;;;8.80;99.90;;;;;;5126727;28;20228;-80
2022/04/27 02:17:14;;;;;;;11.73;11.33;;;8.80;99.90;;;;;;5126025;28;20247;-80
2022/04/27 02:19:42;;;;;;;11.60;11.20;;;8.80;99.90;;;;;;5125041;28;20225;-81
2022/04/27 02:22:10;;;;;;;11.67;11.27;;;8.80;99.90;;;;;;5124509;28;20328;-80
2022/04/27 02:24:37;;;;;;;11.67;11.27;;;8.80;99.90;;;;;;5125285;28;20268;-80
2022/04/27 02:27:06;;;;;;;11.70;11.30;;;8.80;99.90;;;;;;5123920;28;20217;-81
2022/04/27 02:29:36;;;;;;;11.60;11.20;;;8.80;99.90;;;;;;5123776;28;20220;-80
2022/04/27 02:32:04;;;;;;;11.67;11.27;;;8.80;99.90;;;;;;5123988;28;20238;-80
2022/04/27 02:34:32;;;;;;;11.93;11.53;;;8.80;99.90;;;;;;5123682;28;20255;-80
2022/04/27 02:37:00;;;;;;;11.70;11.30;;;8.80;99.90;;;;;;5123421;28;20237;-81
2022/04/27 02:39:28;;;;;;;11.80;11.40;;;8.80;99.90;;;;;;5123383;28;20252;-80
2022/04/27 02:41:56;;;;;;;11.97;11.57;;;8.80;99.90;;;;;;5123137;28;20240;-81
2022/04/27 02:44:23;;;;;;;11.63;11.23;;;8.80;99.90;;;;;;5122632;28;20711;-81
2022/04/27 02:46:52;;;;;;;11.80;11.40;;;8.80;99.90;;;;;;5122873;28;20286;-81
2022/04/27 02:52:07;;;;;;;11.87;11.47;;;8.80;99.90;;;;;;5122383;28;20313;-82
2022/04/27 02:54:35;;;;;;;12.00;11.60;;;8.80;99.90;;;;;;5122218;28;20228;-80
2022/04/27 02:57:03;;;;;;;11.77;11.37;;;8.80;99.90;;;;;;5122191;28;20239;-81
2022/04/27 02:59:31;;;;;;;11.63;11.23;;;8.80;99.90;;;;;;5122785;28;20228;-80
2022/04/27 03:02:01;;;;;;;11.77;11.37;;;8.80;99.90;;;;;;5122492;28;20267;-81
2022/04/27 03:04:29;;;;;;;11.80;11.40;;;8.80;99.90;;;;;;5122256;28;20278;-80
2022/04/27 03:06:56;;;;;;;11.87;11.47;;;8.80;99.90;;;;;;5123177;28;20236;-81
2022/04/27 03:09:24;;;;;;;11.93;11.53;;;8.70;99.90;;;;;;5132809;28;20302;-80
2022/04/27 03:11:52;;;;;;;11.50;11.10;;;8.80;99.90;;;;;;5125456;28;20247;-80
2022/04/27 03:14:20;;;;;;;11.80;11.40;;;8.80;99.90;;;;;;5125031;28;20236;-80
2022/04/27 03:16:49;;;;;;;11.37;10.97;;;8.80;99.90;;;;;;5125042;28;20232;-81
2022/04/27 03:19:18;;;;;;;11.10;10.70;;;8.80;99.90;;;;;;5124200;28;20225;-80
2022/04/27 03:21:46;;;;;;;11.40;11.00;;;8.80;99.90;;;;;;5123582;28;20259;-81
2022/04/27 03:24:14;;;;;;;11.60;11.20;;;8.80;99.90;;;;;;5123516;28;20224;-80
2022/04/27 03:26:42;;;;;;;11.60;11.20;;;8.70;99.90;;;;;;5122042;28;20233;-81
2022/04/27 03:29:10;;;;;;;11.40;11.00;;;8.70;99.90;;;;;;5122433;28;20229;-81
2022/04/27 03:31:38;;;;;;;11.70;11.30;;;8.60;99.90;;;;;;5122763;28;20227;-81
2022/04/27 03:34:06;;;;;;;11.60;11.20;;;8.60;99.90;;;;;;5132708;28;20240;-81
2022/04/27 03:36:35;;;;;;;11.33;10.93;;;8.60;99.90;;;;;;5126436;28;20225;-80
2022/04/27 03:39:03;;;;;;;11.47;11.07;;;8.50;99.90;;;;;;5126603;28;20327;-81
2022/04/27 03:41:33;;;;;;;11.43;11.03;;;8.50;99.90;;;;;;5120312;28;20229;-80
2022/04/27 03:44:00;;;;;;;11.47;11.07;;;8.60;99.90;;;;;;5120897;28;20236;-81
2022/04/27 03:46:28;;;;;;;11.30;10.90;;;8.60;99.90;;;;;;5121188;28;20258;-81
2022/04/27 03:48:56;;;;;;;12.07;11.67;;;8.60;99.90;;;;;;5121118;28;20233;-80
2022/04/27 03:51:24;;;;;;;12.00;11.60;;;8.60;99.90;;;;;;5121168;28;20227;-81
2022/04/27 03:53:53;;;;;;;12.13;11.73;;;8.60;99.90;;;;;;5120440;28;21003;-81
2022/04/27 03:56:21;;;;;;;11.90;11.50;;;8.60;99.90;;;;;;5121138;28;20323;-81
2022/04/27 03:58:49;;;;;;;12.23;11.83;;;8.60;99.90;;;;;;5121316;28;20225;-80
2022/04/27 04:01:17;;;;;;;12.07;11.67;;;8.60;99.90;;;;;;5121035;28;20233;-81
2022/04/27 04:03:45;;;;;;;12.50;12.10;;;8.60;99.90;;;;;;5121274;28;20233;-81
2022/04/27 04:06:13;;;;;;;13.00;12.50;;;8.60;99.90;;;;;;5120967;28;20295;-81
2022/04/27 04:08:40;;;;;;;12.50;12.10;;;8.60;99.90;;;;;;5121052;28;20228;-81
2022/04/27 04:11:11;;;;;;;12.27;11.87;;;8.50;99.90;;;;;;5120633;28;20232;-81
2022/04/27 04:13:39;;;;;;;12.40;12.00;;;8.50;99.90;;;;;;5120710;28;20327;-81
2022/04/27 04:16:07;;;;;;;11.83;11.43;;;8.50;99.90;;;;;;5120795;28;20290;-81
2022/04/27 04:18:34;;;;;;;11.73;11.33;;;8.50;99.90;;;;;;5120825;28;20278;-81
2022/04/27 04:21:02;;;;;;;11.80;11.40;;;8.50;99.90;;;;;;5120107;28;20251;-81
2022/04/27 04:23:30;;;;;;;11.67;11.27;;;8.60;99.90;;;;;;5123604;28;20267;-82
2022/04/27 04:28:44;;;;;;;12.00;11.60;;;8.50;99.90;;;;;;5122072;28;20305;-81
2022/04/27 04:31:14;;;;;;;11.90;11.50;;;8.60;99.90;;;;;;5121018;27;20239;-81
2022/04/27 04:33:42;;;;;;;11.87;11.47;;;8.50;99.90;;;;;;5120746;28;20243;-83
2022/04/27 04:36:10;;;;;;;11.67;11.27;;;8.50;99.90;;;;;;5121245;28;20224;-81
2022/04/27 04:38:38;;;;;;;11.70;11.30;;;8.40;99.90;;;;;;5120911;28;20290;-81
2022/04/27 04:41:06;;;;;;;11.73;11.33;;;8.40;99.90;;;;;;5122687;28;20231;-81
2022/04/27 04:43:34;;;;;;;11.97;11.57;;;8.40;99.90;;;;;;5122477;28;20240;-81
2022/04/27 04:46:03;;;;;;;11.90;11.50;;;8.40;99.90;;;;;;5122023;28;20232;-82
2022/04/27 04:48:31;;;;;;;11.70;11.30;;;8.40;99.90;;;;;;5122145;28;20228;-81
2022/04/27 04:50:59;;;;;;;11.83;11.43;;;8.40;99.90;;;;;;5120817;28;20263;-82
2022/04/27 04:53:27;;;;;;;12.30;11.90;;;8.40;99.90;;;;;;5120717;28;20298;-81
2022/04/27 04:55:54;;;;;;;11.90;11.50;;;8.30;99.90;;;;;;5120839;28;20231;-81
2022/04/27 04:58:23;;;;;;;11.87;11.47;;;8.30;99.90;;;;;;5121008;28;20232;-81
2022/04/27 05:00:50;;;;;;;12.00;11.60;;;8.30;99.90;;;;;;5121781;28;20228;-81
2022/04/27 05:03:20;;;;;;;12.20;11.80;;;8.20;99.90;;;;;;5120594;28;20377;-81
2022/04/27 05:05:47;;;;;;;11.90;11.50;;;8.20;99.90;;;;;;5120062;28;20228;-82
2022/04/27 05:08:15;;;;;;;12.00;11.60;;;8.30;99.90;;;;;;5130526;28;20213;-81
2022/04/27 05:10:43;;;;;;;12.00;11.60;;;8.30;99.90;;;;;;5123678;28;20224;-81
2022/04/27 05:13:11;;;;;;;12.40;12.00;;;8.40;99.90;;;;;;5122380;28;20243;-81
2022/04/27 05:15:39;;;;;;;12.33;11.93;;;8.40;99.90;;;;;;5122574;28;20282;-81
2022/04/27 05:18:07;;;;;;;12.40;12.00;;;8.50;99.90;;;;;;5120554;28;20282;-81
2022/04/27 05:20:38;;;;;;;12.53;12.13;;;8.40;99.90;;;;;;5121892;28;20228;-81
2022/04/27 05:23:06;;;;;;;12.40;12.00;;;8.40;99.90;;;;;;5131045;22;20244;-79
2022/04/27 05:25:35;;;;;;;12.43;12.03;;;8.50;99.90;;;;;;5116480;27;20229;-79
2022/04/27 05:28:03;;;;;;;12.27;11.87;;;8.40;99.90;;;;;;5102825;27;20221;-78
2022/04/27 05:33:24;;;;;;;12.37;11.97;;;8.50;99.90;;;;;;5059751;28;20241;-79
2022/04/27 05:35:53;;;;;;;12.10;11.70;;;8.50;99.90;;;;;;5083140;28;20234;-80
2022/04/27 05:38:21;;;;;;;12.00;11.60;;;8.50;99.90;;;;;;5088499;28;20283;-79
2022/04/27 05:40:49;;;;;;;12.00;11.60;;;8.60;99.90;;;;;;5119349;27;20258;-79
2022/04/27 05:43:17;;;;;;;11.87;11.47;;;8.60;99.90;;;;;;5103274;28;20237;-78
2022/04/27 05:45:46;;;;;;;12.10;11.70;;;8.60;99.90;;;;;;5105037;28;20213;-80
2022/04/27 05:48:16;;;;;;;11.67;11.27;;;8.70;99.90;;;;;;5104208;27;20233;-80
2022/04/27 05:50:43;;;;;;;11.73;11.33;;;8.80;99.90;;;;;;5105604;28;20233;-79
2022/04/27 05:53:24;;;;;;;11.70;11.30;;;8.80;99.90;;;;;;5104407;28;20237;-79
2022/04/27 05:55:53;;;;;;;12.52;12.13;;;8.90;99.90;;;;;;5103967;28;20374;-80
2022/04/27 05:58:22;;;;;;;12.00;11.60;;;9.00;99.90;;;;;;5105120;28;20243;-80
2022/04/27 06:00:52;;;;;;;12.23;11.83;;;9.10;99.90;;;;;;5105935;28;20291;-80
2022/04/27 06:03:22;;;;;;;12.10;11.70;;;9.30;99.90;;;;;;5104640;28;20234;-79
2022/04/27 06:05:51;;;;;;;11.93;11.53;;;9.40;99.90;;;;;;5105339;28;20230;-80
2022/04/27 06:08:30;;;;;;;11.90;11.50;;;9.40;99.90;;;;;;5104742;28;20225;-79
2022/04/27 06:10:58;;;;;;;11.80;11.40;;;9.50;99.90;;;;;;5104918;28;20221;-79
2022/04/27 06:13:27;;;;;;;12.20;11.80;;;9.50;99.90;;;;;;5104341;27;20240;-80
2022/04/27 06:15:58;;;;;;;12.20;11.80;;;9.60;99.90;;;;;;5105243;27;20272;-80
2022/04/27 06:18:26;;;;;;;11.70;11.30;;;9.70;99.90;;;;;;5105071;28;20225;-80
2022/04/27 06:20:56;;;;;;;12.27;11.87;;;9.80;99.90;;;;;;5104671;27;20232;-80
2022/04/27 06:23:26;;;;;;;12.10;11.70;;;9.90;99.90;;;;;;5103621;28;20237;-79
2022/04/27 06:25:57;;;;;;;11.97;11.57;;;10.00;99.90;;;;;;5103134;28;20225;-80
2022/04/27 06:28:24;;;;;;;12.10;11.70;;;10.20;99.90;;;;;;5104378;28;20244;-80
2022/04/27 06:30:54;;;;;;;12.00;11.60;;;10.30;99.90;;;;;;5103419;28;20291;-79
2022/04/27 06:33:23;;;;;;;11.27;10.97;;;10.50;99.90;;;;;;5103005;27;20234;-81
2022/04/27 06:35:53;;;;;;;11.27;10.97;;;10.60;99.90;;;;;;5102530;28;20704;-80
2022/04/27 06:38:22;;;;;;;11.80;11.40;;;10.80;99.90;;;;;;5103515;28;20218;-81
2022/04/27 06:41:00;;;;;;;11.20;10.90;;;10.80;99.90;;;;;;5104469;27;20238;-81
2022/04/27 06:43:30;;;;;;;11.20;10.90;;;11.00;99.90;;;;;;5104558;28;20237;-81
2022/04/27 06:45:59;;;;;;;11.07;10.77;;;11.00;99.90;;;;;;5105376;28;20264;-81
2022/04/27 06:48:30;;;;;;;11.00;10.70;;;11.20;99.90;;;;;;5103890;28;20797;-81
2022/04/27 06:50:58;;;;;;;10.87;10.57;;;11.20;99.90;;;;;;5104154;28;20371;-82
2022/04/27 06:53:27;;;;;;;10.60;10.30;;;11.30;99.90;;;;;;5103269;28;20241;-81
2022/04/27 06:56:06;;;;;;;10.60;10.30;;;11.30;99.90;;;;;;5104727;27;20230;-81
2022/04/27 06:58:35;;;;;;;10.70;10.40;;;11.20;99.90;;;;;;5104373;28;20213;-82
2022/04/27 07:01:05;;;;;;;10.87;10.57;;;11.40;99.90;;;;;;5112738;27;20230;-79
2022/04/27 07:03:35;;;;;;;10.70;10.40;;;11.70;99.90;;;;;;5120164;27;20253;-81
2022/04/27 07:06:04;;;;;;;10.67;10.37;;;11.80;99.90;;;;;;5118151;28;20226;-82
2022/04/27 07:08:33;;;;;;;10.60;10.30;;;11.70;99.90;;;;;;5110489;27;20252;-82
2022/04/27 07:11:11;;;;;;;10.20;9.90;;;11.60;99.90;;;;;;5104890;28;20256;-81
2022/04/27 07:13:41;;;;;;;10.40;10.10;;;11.70;99.90;;;;;;5104674;28;20237;-80
2022/04/27 07:16:10;;;;;;;10.40;10.10;;;11.40;99.90;;;;;;5103964;28;20234;-81
2022/04/27 07:18:40;;;;;;;10.40;10.10;;;11.50;99.90;;;;;;5103484;28;20229;-82
2022/04/27 07:21:10;;;;;;;10.57;10.27;;;11.60;99.90;;;;;;5102862;27;20293;-82
2022/04/27 07:23:38;;;;;;;10.37;10.07;;;11.80;99.90;;;;;;5102907;27;20242;-82
2022/04/27 07:26:11;;;;;;;10.10;9.80;;;11.80;99.90;;;;;;5103574;28;20240;-84
2022/04/27 07:28:41;;;;;;;10.40;10.10;;;11.70;99.90;;;;;;5102854;27;20230;-82
2022/04/27 07:31:09;;;;;;;10.47;10.17;;;11.60;99.90;;;;;;5102984;27;20319;-82
2022/04/27 07:33:39;;;;;;;10.70;10.40;;;11.60;99.90;;;;;;5110109;27;20235;-82
2022/04/27 07:36:07;;;;;;;10.03;9.73;;;11.60;99.90;;;;;;5122641;27;20237;-83
2022/04/27 07:38:38;;;;;;;10.90;10.60;;;11.60;99.90;;;;;;5123132;27;20256;-83
2022/04/27 07:41:06;;;;;;;10.40;10.10;;;11.60;99.90;;;;;;5123115;27;20236;-83
2022/04/27 07:46:23;;;;;;;10.07;9.77;;;11.90;99.90;;;;;;5137657;28;20231;-81
2022/04/27 07:48:52;;;;;;;10.40;10.10;;;11.70;99.90;;;;;;5129996;27;20228;-82
2022/04/27 07:51:21;;;;;;;10.27;9.97;;;11.60;99.90;;;;;;5124946;27;20238;-84
2022/04/27 07:53:51;;;;;;;10.40;10.10;;;11.50;99.90;;;;;;5124852;27;20240;-85
2022/04/27 07:56:20;;;;;;;10.13;9.83;;;11.60;99.90;;;;;;5124708;27;20301;-82
2022/04/27 08:01:37;;;;;;;9.90;9.60;;;11.60;99.90;;;;;;5123341;28;20298;-82
2022/04/27 08:04:07;;;;;;;10.00;9.70;;;11.50;99.90;;;;;;5123202;27;20241;-81
2022/04/27 08:06:36;;;;;;;10.00;9.70;;;11.60;99.90;;;;;;5122484;27;20290;-81
2022/04/27 08:09:05;;;;;;;9.47;9.17;;;11.60;99.90;;;;;;5122803;27;20217;-81
2022/04/27 08:11:35;;;;;;;9.90;9.60;;;11.60;99.90;;;;;;5122588;27;20228;-83
2022/04/27 08:14:13;;;;;;;9.63;9.33;;;11.70;99.90;;;;;;5109780;27;20240;-81
2022/04/27 08:16:42;;;;;;;9.63;9.33;;;11.90;99.90;;;;;;5102549;28;20229;-85
2022/04/27 08:19:14;;;;;;;9.53;9.23;;;12.00;99.90;;;;;;5102436;27;20233;-87
2022/04/27 08:21:43;;;;;;;9.73;9.43;;;12.20;99.90;;;;;;5101873;27;20229;-86
2022/04/27 08:24:16;;;;;;;9.93;9.63;;;12.30;99.90;;;;;;5101288;27;20249;-84
2022/04/27 08:26:50;;;;;;;10.00;9.70;;;12.40;99.90;;;;;;5100540;28;20217;-87
2022/04/27 08:29:27;;;;;;;10.07;9.77;;;12.40;99.90;;;;;;5100153;27;20240;-86
2022/04/27 08:33:09;;;;;;;9.87;9.57;;;12.40;99.90;;;;;;5100735;27;20268;-86
2022/04/27 08:43:06;;;;;;;10.07;9.77;;;12.90;99.90;;;;;;5063887;27;20284;-86
2022/04/27 08:45:43;;;;;;;10.10;9.80;;;13.00;99.90;;;;;;5121178;27;20323;-87
2022/04/27 08:48:24;;;;;;;10.10;9.80;;;12.90;99.90;;;;;;5121272;27;20220;-88
2022/04/27 08:51:11;;;;;;;10.00;9.70;;;12.90;99.90;;;;;;5123601;27;20227;-87
2022/04/27 08:53:55;;;;;;;10.27;9.97;;;13.10;99.90;;;;;;5140483;27;20208;-87
2022/04/27 08:56:43;;;;;;;10.03;9.73;;;13.20;99.90;;;;;;5140713;27;20228;-89
2022/04/27 09:58:01;;;;;;;11.15;10.85;;;16.50;99.90;;;;;;5081657;28;20255;-88
2022/04/27 10:03:24;;;;;;;10.52;10.23;;;16.80;99.90;;;;;;5082604;28;20717;-88
2022/04/27 10:06:04;;;;;;;10.95;10.65;;;16.80;99.90;;;;;;5084372;28;20230;-88
2022/04/27 10:08:43;;;;;;;10.90;10.60;;;17.00;99.90;;;;;;5085280;28;20226;-89
2022/04/27 10:21:19;;;;;;;10.20;9.90;;;17.40;99.90;;;;;;5092364;28;20213;-89
2022/04/27 10:26:43;;;;;;;10.70;10.40;;;16.90;99.90;;;;;;5099769;28;20244;-87
2022/04/27 10:32:11;;;;;;;10.70;10.40;;;17.90;99.90;;;;;;5100908;28;20272;-88
2022/04/27 10:34:47;;;;;;;11.05;10.75;;;18.50;99.90;;;;;;5101979;28;20230;-87
2022/04/27 10:37:53;;;;;;;10.90;10.60;;;18.60;99.90;;;;;;5102182;28;20202;-86
2022/04/27 10:43:43;;;;;;;11.02;10.73;;;18.90;99.90;;;;;;5101037;28;20284;-87
2022/04/27 11:00:00;;;;;;;10.57;10.27;;;17.20;99.90;;;;;;5103086;28;20216;-87
2022/04/27 11:03:11;;;;;;;10.57;10.27;;;16.70;99.90;;;;;;5119328;28;20389;-86
2022/04/27 11:13:34;;;;;;;10.57;10.27;;;16.10;99.90;;;;;;5059858;28;20225;-88
2022/04/27 11:26:02;;;;;;;10.23;9.93;;;15.70;99.90;;;;;;5147800;22;20296;-84
2022/04/27 11:28:41;;;;;;;10.07;9.77;;;15.60;99.90;;;;;;5128195;27;20232;-86
2022/04/27 11:31:10;;;;;;;10.25;9.95;;;15.70;99.90;;;;;;5123633;27;20296;-86
2022/04/27 11:33:41;;;;;;;10.02;9.73;;;15.80;99.90;;;;;;5121744;27;20315;-86
2022/04/27 11:36:23;;;;;;;9.98;9.68;;;15.80;99.90;;;;;;5121759;27;20320;-84
2022/04/27 11:38:54;;;;;;;10.23;9.93;;;15.90;99.90;;;;;;5121976;27;20229;-81
2022/04/27 11:41:27;;;;;;;10.60;10.30;;;16.00;99.90;;;;;;5120029;27;20236;-84
2022/04/27 11:43:56;;;;;;;10.35;10.05;;;16.00;99.90;;;;;;5113796;27;20233;-85
2022/04/27 11:46:37;;;;;;;10.70;10.40;;;16.00;99.90;;;;;;5102604;28;20232;-83
2022/04/27 11:49:12;;;;;;;10.73;10.43;;;16.10;99.90;;;;;;5102413;28;20233;-86
2022/04/27 11:51:47;;;;;;;10.73;10.43;;;16.40;99.90;;;;;;5103177;28;20229;-80
2022/04/27 11:54:27;;;;;;;10.40;10.10;;;16.90;99.90;;;;;;5100599;28;20263;-81
2022/04/27 11:57:00;;;;;;;10.50;10.20;;;17.30;99.90;;;;;;5100280;28;20351;-85
2022/04/27 11:59:47;;;;;;;10.02;9.73;;;17.30;99.90;;;;;;5102698;28;20243;-85
2022/04/27 12:02:15;;;;;;;10.50;10.20;;;17.40;99.90;;;;;;5102391;28;20298;-86
2022/04/27 12:04:44;;;;;;;10.50;10.20;;;17.20;99.90;;;;;;5100905;28;20237;-85
2022/04/27 12:07:14;;;;;;;10.20;9.90;;;17.40;99.90;;;;;;5101658;28;20236;-85
2022/04/27 12:09:44;;;;;;;10.23;9.93;;;17.40;99.90;;;;;;5101128;28;20233;-85
2022/04/27 12:12:13;;;;;;;10.20;9.90;;;17.40;99.90;;;;;;5101101;28;20229;-85
2022/04/27 12:14:43;;;;;;;10.43;10.13;;;17.20;99.90;;;;;;5101285;28;20236;-85
2022/04/27 12:17:48;;;;;;;10.25;9.95;;;17.20;99.90;;;;;;5101473;28;20252;-85
2022/04/27 12:20:34;;;;;;;10.20;9.90;;;16.90;99.90;;;;;;5102254;28;20231;-85
2022/04/27 12:23:05;;;;;;;10.18;9.88;;;17.00;99.90;;;;;;5121989;27;20288;-85
2022/04/27 12:25:41;;;;;;;10.43;10.13;;;17.20;99.90;;;;;;5121043;27;20233;-85
2022/04/27 12:28:12;;;;;;;10.20;9.90;;;17.30;99.90;;;;;;5121657;27;20232;-85
2022/04/27 12:30:58;;;;;;;10.73;10.43;;;17.40;99.90;;;;;;5121249;27;20193;-86
2022/04/27 12:33:29;;;;;;;10.63;10.32;;;17.50;99.90;;;;;;5122105;28;20220;-85
2022/04/27 12:39:03;;;;;;;10.50;10.20;;;17.90;99.90;;;;;;5121924;28;20217;-85
2022/04/27 12:41:34;;;;;;;10.60;10.30;;;18.10;99.90;;;;;;5121810;28;20708;-85
2022/04/27 12:44:09;;;;;;;10.68;10.38;;;18.10;99.90;;;;;;5121674;28;20236;-86
2022/04/27 12:46:57;;;;;;;10.52;10.23;;;18.30;99.90;;;;;;5122593;28;20231;-87
2022/04/27 12:49:26;;;;;;;10.70;10.40;;;18.50;99.90;;;;;;5123782;28;20333;-85
2022/04/27 12:51:55;;;;;;;10.35;10.05;;;18.80;99.90;;;;;;5123860;27;20220;-84
2022/04/27 12:54:36;;;;;;;10.15;9.85;;;19.00;99.90;;;;;;5126174;28;20292;-86
2022/04/27 12:57:04;;;;;;;10.32;10.02;;;18.80;99.90;;;;;;5124661;27;20228;-85
2022/04/27 12:59:32;;;;;;;10.45;10.15;;;18.40;99.90;;;;;;5126078;28;20229;-83
2022/04/27 13:02:06;;;;;;;10.57;10.27;;;19.00;99.90;;;;;;5125838;28;20236;-82
2022/04/27 13:04:34;;;;;;;10.45;10.15;;;19.80;99.90;;;;;;5123732;28;20248;-83
2022/04/27 13:07:03;;;;;;;10.43;10.13;;;20.60;99.90;;;;;;5125556;28;20229;-84
2022/04/27 13:12:18;;;;;;;10.30;10.00;;;21.20;99.90;;;;;;5130640;28;20201;-81
2022/04/27 13:14:54;;;;;;;10.52;10.23;;;21.30;99.90;;;;;;5129459;28;20236;-82
2022/04/27 13:17:24;;;;;;;10.60;10.30;;;20.90;99.90;;;;;;5128640;28;20282;-82
2022/04/27 13:20:02;;;;;;;10.52;10.23;;;20.90;99.90;;;;;;5129244;28;20309;-83
2022/04/27 13:22:30;;;;;;;10.25;9.95;;;20.30;99.90;;;;;;5127702;27;20232;-83
2022/04/27 13:25:00;;;;;;;10.73;10.43;;;19.80;99.90;;;;;;5122198;27;20244;-82
2022/04/27 13:27:28;;;;;;;10.60;10.30;;;19.10;99.90;;;;;;5125456;28;20298;-82
2022/04/27 13:30:02;;;;;;;10.43;10.13;;;18.50;99.90;;;;;;5126113;28;20291;-82
2022/04/27 13:32:31;;;;;;;10.43;10.13;;;18.20;99.90;;;;;;5124628;28;20286;-83
2022/04/27 13:35:01;;;;;;;10.60;10.30;;;18.10;99.90;;;;;;5125934;27;20228;-82
2022/04/27 13:37:32;;;;;;;10.85;10.55;;;17.80;99.90;;;;;;5124741;28;20255;-84
2022/04/27 13:40:00;;;;;;;10.70;10.40;;;17.40;99.90;;;;;;5123909;28;20224;-81
2022/04/27 13:42:29;;;;;;;10.45;10.15;;;17.10;99.90;;;;;;5124840;27;20228;-85
2022/04/27 13:44:59;;;;;;;10.60;10.30;;;17.10;99.90;;;;;;5125842;28;20240;-85
2022/04/27 13:47:31;;;;;;;10.27;9.98;;;17.20;99.90;;;;;;5126940;28;20262;-86
2022/04/27 13:50:01;;;;;;;10.45;10.15;;;17.20;99.90;;;;;;5125682;27;20228;-86
2022/04/27 13:52:29;;;;;;;10.23;9.93;;;17.20;99.90;;;;;;5129648;28;20221;-85
2022/04/27 13:54:57;;;;;;;10.70;10.40;;;17.20;99.90;;;;;;5130344;28;20239;-85
2022/04/27 13:57:26;;;;;;;10.38;10.07;;;16.90;99.90;;;;;;5126016;28;20232;-85
2022/04/27 13:59:56;;;;;;;10.00;9.70;;;16.80;99.90;;;;;;5126926;27;20225;-85
2022/04/27 14:02:25;;;;;;;10.20;9.90;;;16.80;99.90;;;;;;5127075;27;20232;-84
2022/04/27 14:04:54;;;;;;;9.90;9.60;;;16.80;99.90;;;;;;5122886;27;20286;-84
2022/04/27 14:07:54;;;;;;;10.02;9.73;;;17.00;99.90;;;;;;5125037;27;20229;-86
2022/04/27 14:10:22;;;;;;;10.30;10.00;;;17.20;99.90;;;;;;5124104;27;20228;-85
2022/04/27 14:15:36;;;;;;;10.50;10.20;;;17.20;99.90;;;;;;5124828;28;20228;-87
2022/04/27 14:18:15;;;;;;;10.50;10.20;;;17.30;99.90;;;;;;5123121;27;20233;-86
2022/04/27 14:20:45;;;;;;;10.20;9.90;;;17.30;99.90;;;;;;5123007;27;20217;-86
2022/04/27 14:23:22;;;;;;;10.13;9.82;;;17.30;99.90;;;;;;5125878;27;20217;-86
2022/04/27 14:25:51;;;;;;;10.45;10.15;;;17.30;99.90;;;;;;5122839;27;20238;-87
2022/04/27 14:28:21;;;;;;;10.57;10.27;;;17.30;99.90;;;;;;5124066;27;20221;-86
2022/04/27 14:30:51;;;;;;;10.25;9.95;;;17.50;99.90;;;;;;5119569;27;20244;-86
2022/04/27 14:33:21;;;;;;;10.30;10.00;;;17.90;99.90;;;;;;5122075;27;20217;-87
2022/04/27 14:36:08;;;;;;;10.27;9.98;;;18.10;99.90;;;;;;5121916;28;20233;-87
2022/04/27 14:38:39;;;;;;;10.60;10.30;;;18.20;99.90;;;;;;5122030;27;20227;-86
2022/04/27 14:41:09;;;;;;;10.43;10.13;;;18.30;99.90;;;;;;5121889;27;20371;-87
2022/04/27 14:43:37;;;;;;;10.75;10.45;;;18.50;99.90;;;;;;5122448;27;20221;-85
2022/04/27 14:46:04;;;;;;;10.80;10.50;;;18.30;99.90;;;;;;5122355;28;20286;-85
2022/04/27 14:48:34;;;;;;;10.77;10.48;;;18.30;99.90;;;;;;5124149;28;20288;-85
2022/04/27 14:51:04;;;;;;;10.48;10.18;;;18.60;99.90;;;;;;5129575;28;20291;-85
2022/04/27 14:53:33;;;;;;;10.50;10.20;;;18.90;99.90;;;;;;5135973;28;20209;-85
2022/04/27 14:56:12;;;;;;;10.35;10.05;;;18.80;99.90;;;;;;5134505;28;20229;-86
2022/04/27 14:58:41;;;;;;;10.43;10.13;;;19.20;99.90;;;;;;5130210;28;20247;-86
2022/04/27 15:01:10;;;;;;;10.23;9.93;;;19.30;99.90;;;;;;5125196;27;20307;-85
2022/04/27 15:03:39;;;;;;;10.27;9.98;;;19.10;99.90;;;;;;5123231;27;20221;-87
2022/04/27 15:06:09;;;;;;;10.18;9.88;;;19.10;99.90;;;;;;5121174;27;20243;-87
2022/04/27 15:08:38;;;;;;;9.98;9.68;;;19.20;99.90;;;;;;5125245;27;20232;-86
2022/04/27 15:11:09;;;;;;;9.93;9.63;;;19.60;99.90;;;;;;5124132;27;20225;-86
2022/04/27 15:13:37;;;;;;;10.20;9.90;;;19.80;99.90;;;;;;5121632;27;20225;-87
2022/04/27 15:16:07;;;;;;;10.10;9.80;;;20.00;99.90;;;;;;5120946;27;20225;-86
2022/04/27 15:18:37;;;;;;;9.98;9.68;;;20.40;99.90;;;;;;5120544;27;20290;-87